createdAt,value
2023-08-12T00:00:33.931Z,2.60
2023-08-12T00:03:01.431Z,2.83
2023-08-12T00:05:28.666Z,2.50
2023-08-12T00:07:56.367Z,2.85
2023-08-12T00:10:23.538Z,2.65
2023-08-12T00:12:50.889Z,3.25
2023-08-12T00:15:18.338Z,2.78
2023-08-12T00:17:45.506Z,2.80
2023-08-12T00:20:13.853Z,2.90
2023-08-12T00:22:41.378Z,2.58
2023-08-12T00:25:08.539Z,2.53
2023-08-12T00:27:35.920Z,2.17
2023-08-12T00:30:02.822Z,3.00
2023-08-12T00:32:29.996Z,2.90
2023-08-12T00:34:58.445Z,2.95
2023-08-12T00:37:25.584Z,3.03
2023-08-12T00:39:53.139Z,2.78
2023-08-12T00:42:20.039Z,3.03
2023-08-12T00:44:47.158Z,2.70
2023-08-12T00:47:15.633Z,2.90
2023-08-12T00:49:46.361Z,2.80
2023-08-12T00:52:17.609Z,2.03
2023-08-12T00:54:45.236Z,2.35
2023-08-12T00:57:12.804Z,2.50
2023-08-12T00:59:42.974Z,2.10
2023-08-12T01:02:10.299Z,2.53
2023-08-12T01:04:37.661Z,2.50
2023-08-12T01:07:05.053Z,2.35
2023-08-12T01:09:32.725Z,2.42
2023-08-12T01:12:10.853Z,3.03
2023-08-12T01:14:48.591Z,2.42
2023-08-12T01:17:16.763Z,1.73
2023-08-12T01:19:46.261Z,2.65
2023-08-12T01:22:14.107Z,2.85
2023-08-12T01:24:42.694Z,2.22
2023-08-12T01:27:13.411Z,1.98
2023-08-12T01:29:49.922Z,2.15
2023-08-12T01:32:32.084Z,2.42
2023-08-12T01:35:21.896Z,2.20
2023-08-12T01:37:51.852Z,1.85
2023-08-12T01:40:21.063Z,2.45
2023-08-12T01:42:50.107Z,2.13
2023-08-12T01:45:17.578Z,2.20
2023-08-12T01:47:45.315Z,2.40
2023-08-12T01:50:12.682Z,2.55
2023-08-12T01:52:40.099Z,2.55
2023-08-12T01:55:07.592Z,2.67
2023-08-12T01:57:35.124Z,2.28
2023-08-12T02:00:06.826Z,2.33
2023-08-12T02:02:47.719Z,2.30
2023-08-12T02:05:18.061Z,2.40
2023-08-12T02:07:45.512Z,2.60
2023-08-12T02:10:12.744Z,2.53
2023-08-12T02:12:40.056Z,2.22
2023-08-12T02:15:07.656Z,2.40
2023-08-12T02:17:34.832Z,2.45
2023-08-12T02:20:02.355Z,2.83
2023-08-12T02:22:31.064Z,2.45
2023-08-12T02:24:58.289Z,1.83
2023-08-12T02:27:25.349Z,2.50
2023-08-12T02:29:52.443Z,2.45
2023-08-12T02:32:19.579Z,2.25
2023-08-12T02:34:46.705Z,2.03
2023-08-12T02:37:14.442Z,2.90
2023-08-12T02:39:41.934Z,2.95
2023-08-12T02:42:08.998Z,2.80
2023-08-12T02:44:36.355Z,3.53
2023-08-12T02:47:03.360Z,2.67
2023-08-12T02:49:30.463Z,2.70
2023-08-12T02:51:57.548Z,2.55
2023-08-12T02:54:24.558Z,2.28
2023-08-12T02:56:52.313Z,2.83
2023-08-12T02:59:19.463Z,2.67
2023-08-12T03:01:46.680Z,2.83
2023-08-12T03:04:14.207Z,2.40
2023-08-12T03:06:41.407Z,2.03
2023-08-12T03:09:08.475Z,3.10
2023-08-12T03:11:35.888Z,3.08
2023-08-12T03:14:05.516Z,2.70
2023-08-12T03:16:33.014Z,2.40
2023-08-12T03:18:59.933Z,2.17
2023-08-12T03:21:27.369Z,2.30
2023-08-12T03:23:54.961Z,2.28
2023-08-12T03:26:22.399Z,2.67
2023-08-12T03:28:49.802Z,3.40
2023-08-12T03:31:19.633Z,3.03
2023-08-12T03:33:46.932Z,2.70
2023-08-12T03:36:15.128Z,2.65
2023-08-12T03:38:43.568Z,2.78
2023-08-12T03:41:15.599Z,2.63
2023-08-12T03:43:43.537Z,3.53
2023-08-12T03:46:11.482Z,2.67
2023-08-12T03:48:39.737Z,3.40
2023-08-12T03:51:07.164Z,3.28
2023-08-12T03:53:34.549Z,3.15
2023-08-12T03:56:02.190Z,3.03
2023-08-12T03:58:31.056Z,3.55
2023-08-12T04:00:59.185Z,2.65
2023-08-12T04:03:26.406Z,3.63
2023-08-12T04:05:54.448Z,3.83
2023-08-12T04:08:24.394Z,3.50
2023-08-12T04:10:52.639Z,4.07
2023-08-12T04:13:20.252Z,3.65
2023-08-12T04:15:52.183Z,4.35
2023-08-12T04:18:19.928Z,3.83
2023-08-12T04:20:51.444Z,3.78
2023-08-12T04:23:18.934Z,4.18
2023-08-12T04:25:48.201Z,5.15
2023-08-12T04:28:16.251Z,4.57
2023-08-12T04:30:45.235Z,4.80
2023-08-12T04:33:14.347Z,5.03
2023-08-12T04:35:43.103Z,4.65
2023-08-12T04:38:10.964Z,5.20
2023-08-12T04:40:43.285Z,6.13
2023-08-12T04:43:11.235Z,5.55
2023-08-12T04:45:39.580Z,6.15
2023-08-12T04:48:10.035Z,5.95
2023-08-12T04:50:37.273Z,6.68
2023-08-12T04:53:04.728Z,7.93
2023-08-12T04:55:32.726Z,7.22
2023-08-12T04:58:01.063Z,7.22
2023-08-12T05:00:31.279Z,8.30
2023-08-12T05:02:59.059Z,8.60
2023-08-12T05:05:28.158Z,8.13
2023-08-12T05:07:55.452Z,9.00
2023-08-12T05:10:23.407Z,8.85
2023-08-12T05:12:53.739Z,9.15
2023-08-12T05:15:21.135Z,8.70
2023-08-12T05:17:49.197Z,9.05
2023-08-12T05:20:20.478Z,9.50
2023-08-12T05:22:47.899Z,9.15
2023-08-12T05:25:14.914Z,8.95
2023-08-12T05:27:42.792Z,10.05
2023-08-12T05:30:10.189Z,9.07
2023-08-12T05:32:37.123Z,9.10
2023-08-12T05:35:04.399Z,9.23
2023-08-12T05:37:31.490Z,9.85
2023-08-12T05:39:58.556Z,9.20
2023-08-12T05:42:25.561Z,9.13
2023-08-12T05:44:52.494Z,10.00
2023-08-12T05:47:19.327Z,10.02
2023-08-12T05:49:46.678Z,9.60
2023-08-12T05:52:13.992Z,11.07
2023-08-12T05:54:41.078Z,10.05
2023-08-12T05:57:08.161Z,9.40
2023-08-12T05:59:35.432Z,10.40
2023-08-12T06:02:02.747Z,10.60
2023-08-12T06:04:29.820Z,10.75
2023-08-12T06:06:56.855Z,10.45
2023-08-12T06:09:23.918Z,10.68
2023-08-12T06:11:51.383Z,10.32
2023-08-12T06:14:18.681Z,10.15
2023-08-12T06:16:45.685Z,11.23
2023-08-12T06:19:12.685Z,11.20
2023-08-12T06:21:39.746Z,12.32
2023-08-12T06:24:07.282Z,11.27
2023-08-12T06:26:34.669Z,12.05
2023-08-12T06:29:03.380Z,11.48
2023-08-12T06:31:32.920Z,12.35
2023-08-12T06:34:00.732Z,12.60
2023-08-12T06:36:27.897Z,11.07
2023-08-12T06:38:55.053Z,10.77
2023-08-12T06:41:22.022Z,11.30
2023-08-12T06:43:48.906Z,12.27
2023-08-12T06:46:16.228Z,10.98
2023-08-12T06:48:43.711Z,10.43
2023-08-12T06:51:13.360Z,10.93
2023-08-12T06:53:41.291Z,10.52
2023-08-12T06:56:08.278Z,11.15
2023-08-12T06:58:35.341Z,10.80
2023-08-12T07:01:02.295Z,10.57
2023-08-12T07:03:29.380Z,10.55
2023-08-12T07:05:56.839Z,9.35
2023-08-12T07:08:23.741Z,9.13
2023-08-12T07:10:52.978Z,8.05
2023-08-12T07:13:20.258Z,7.50
2023-08-12T07:15:47.275Z,7.50
2023-08-12T07:18:14.665Z,7.60
2023-08-12T07:20:41.761Z,5.25
2023-08-12T07:23:08.664Z,3.67
2023-08-12T07:25:35.670Z,3.65
2023-08-12T07:28:02.710Z,1.88
2023-08-12T07:30:29.734Z,1.98
2023-08-12T07:32:56.806Z,1.50
2023-08-12T07:35:24.216Z,2.30
2023-08-12T07:37:51.645Z,1.50
2023-08-12T07:40:18.682Z,1.42
2023-08-12T07:42:45.693Z,1.55
2023-08-12T07:45:12.620Z,1.25
2023-08-12T07:47:40.792Z,1.58
2023-08-12T07:50:08.310Z,0.68
2023-08-12T07:52:35.775Z,0.80
2023-08-12T07:55:03.677Z,0.98
2023-08-12T07:57:32.446Z,1.40
2023-08-12T07:59:59.330Z,0.85
2023-08-12T08:02:26.312Z,0.90
2023-08-12T08:04:53.754Z,0.63
2023-08-12T08:07:21.151Z,0.95
2023-08-12T08:09:48.038Z,1.27
2023-08-12T08:12:15.184Z,1.48
2023-08-12T08:14:42.322Z,0.98
2023-08-12T08:17:09.412Z,1.10
2023-08-12T08:19:36.586Z,1.38
2023-08-12T08:22:04.868Z,2.00
2023-08-12T08:24:32.077Z,2.30
2023-08-12T08:26:59.107Z,1.33
2023-08-12T08:29:26.598Z,1.40
2023-08-12T08:31:53.593Z,1.58
2023-08-12T08:34:20.697Z,0.88
2023-08-12T08:36:47.797Z,1.77
2023-08-12T08:39:14.869Z,2.25
2023-08-12T08:41:42.529Z,1.00
2023-08-12T08:44:10.806Z,1.38
2023-08-12T08:46:38.226Z,1.20
2023-08-12T08:49:05.732Z,2.13
2023-08-12T08:51:33.599Z,1.50
2023-08-12T08:54:03.882Z,1.13
2023-08-12T08:56:37.815Z,1.55
2023-08-12T08:59:11.833Z,1.48
2023-08-12T09:01:41.226Z,1.83
2023-08-12T09:04:09.097Z,1.20
2023-08-12T09:06:38.061Z,1.77
2023-08-12T09:09:10.417Z,1.70
2023-08-12T09:11:40.392Z,1.02
2023-08-12T09:14:08.116Z,1.27
2023-08-12T09:16:35.378Z,1.60
2023-08-12T09:19:02.332Z,1.90
2023-08-12T09:21:29.633Z,2.17
2023-08-12T09:23:56.883Z,1.30
2023-08-12T09:26:23.920Z,1.70
2023-08-12T09:28:51.945Z,1.70
2023-08-12T09:31:26.415Z,1.48
2023-08-12T09:33:54.563Z,2.28
2023-08-12T09:36:23.614Z,1.42
2023-08-12T09:38:50.732Z,1.50
2023-08-12T09:41:17.911Z,1.08
2023-08-12T09:43:46.075Z,1.40
2023-08-12T09:46:17.361Z,1.10
2023-08-12T09:48:45.269Z,1.67
2023-08-12T09:51:12.330Z,1.48
2023-08-12T09:53:39.468Z,1.30
2023-08-12T09:56:09.159Z,1.25
2023-08-12T09:58:38.335Z,1.20
2023-08-12T10:01:07.342Z,1.27
2023-08-12T10:03:35.740Z,1.48
2023-08-12T10:06:04.383Z,1.20
2023-08-12T10:08:32.826Z,1.70
2023-08-12T10:11:12.449Z,1.60
2023-08-12T10:13:41.947Z,1.48
2023-08-12T10:16:11.017Z,1.73
2023-08-12T10:18:40.928Z,1.75
2023-08-12T10:21:11.222Z,1.60
2023-08-12T10:23:38.478Z,1.30
2023-08-12T10:26:08.556Z,1.85
2023-08-12T10:28:38.910Z,1.73
2023-08-12T10:31:07.465Z,2.13
2023-08-12T10:33:41.280Z,2.03
2023-08-12T10:36:09.484Z,1.77
2023-08-12T10:38:37.189Z,1.35
2023-08-12T10:41:20.409Z,1.80
2023-08-12T10:44:07.208Z,1.63
2023-08-12T10:46:38.314Z,1.75
2023-08-12T10:49:07.027Z,1.98
2023-08-12T10:52:00.433Z,1.95
2023-08-12T10:54:33.080Z,1.90
2023-08-12T10:57:04.034Z,2.65
2023-08-12T10:59:46.493Z,2.03
2023-08-12T11:02:30.812Z,1.38
2023-08-12T11:05:02.793Z,2.17
2023-08-12T11:07:44.251Z,2.00
2023-08-12T11:10:14.492Z,1.58
2023-08-12T11:12:47.199Z,1.45
2023-08-12T11:15:14.360Z,1.63
2023-08-12T11:17:42.838Z,1.77
2023-08-12T11:20:12.043Z,1.60
2023-08-12T11:22:43.600Z,1.70
2023-08-12T11:25:13.009Z,1.95
2023-08-12T11:27:44.133Z,1.92
2023-08-12T11:30:13.590Z,2.00
2023-08-12T11:32:41.673Z,1.90
2023-08-12T11:35:09.903Z,1.80
2023-08-12T11:37:38.478Z,1.50
2023-08-12T11:40:07.815Z,1.50
2023-08-12T11:42:34.767Z,2.95
2023-08-12T11:45:01.722Z,1.88
2023-08-12T11:47:28.617Z,1.58
2023-08-12T11:49:55.971Z,2.47
2023-08-12T11:52:24.053Z,1.80
2023-08-12T11:54:51.948Z,2.10
2023-08-12T11:57:19.680Z,1.90
2023-08-12T11:59:47.593Z,1.80
2023-08-12T12:02:15.040Z,2.17
2023-08-12T12:04:44.335Z,1.70
2023-08-12T12:07:21.510Z,2.38
2023-08-12T12:09:51.775Z,1.60
2023-08-12T12:12:18.865Z,1.67
2023-08-12T12:14:48.302Z,2.38
2023-08-12T12:17:16.614Z,1.80
2023-08-12T12:19:44.594Z,1.70
2023-08-12T12:22:12.254Z,2.10
2023-08-12T12:24:49.173Z,2.10
2023-08-12T12:27:16.331Z,2.10
2023-08-12T12:29:43.313Z,2.00
2023-08-12T12:32:12.799Z,2.08
2023-08-12T12:34:39.988Z,2.00
2023-08-12T12:37:07.381Z,1.92
2023-08-12T12:39:35.130Z,1.70
2023-08-12T12:42:02.817Z,1.70
2023-08-12T12:44:29.808Z,2.53
2023-08-12T12:46:56.709Z,2.03
2023-08-12T12:49:23.950Z,2.30
2023-08-12T12:51:51.731Z,2.17
2023-08-12T12:54:18.988Z,2.15
2023-08-12T12:56:46.338Z,1.80
2023-08-12T12:59:13.764Z,2.10
2023-08-12T13:01:40.859Z,2.53
2023-08-12T13:04:09.694Z,2.90
2023-08-12T13:06:36.910Z,2.03
2023-08-12T13:09:04.332Z,2.47
2023-08-12T13:11:34.753Z,2.65
2023-08-12T13:14:02.212Z,2.63
2023-08-12T13:16:29.102Z,2.15
2023-08-12T13:18:57.009Z,2.15
2023-08-12T13:21:24.362Z,2.25
2023-08-12T13:23:52.028Z,2.55
2023-08-12T13:26:20.330Z,2.17
2023-08-12T13:28:48.059Z,3.28
2023-08-12T13:31:15.578Z,2.28
2023-08-12T13:33:45.012Z,1.80
2023-08-12T13:36:12.468Z,1.92
2023-08-12T13:38:39.560Z,2.42
2023-08-12T13:41:07.131Z,2.30
2023-08-12T13:43:34.148Z,2.33
2023-08-12T13:46:02.390Z,2.22
2023-08-12T13:48:30.125Z,2.03
2023-08-12T13:51:01.100Z,2.50
2023-08-12T13:53:28.701Z,1.80
2023-08-12T13:55:55.904Z,2.08
2023-08-12T13:58:22.844Z,2.13
2023-08-12T14:00:50.992Z,2.10
2023-08-12T14:03:18.049Z,2.17
2023-08-12T14:05:46.119Z,1.65
2023-08-12T14:08:13.311Z,2.55
2023-08-12T14:10:40.342Z,1.77
2023-08-12T14:13:08.214Z,2.13
2023-08-12T14:15:36.594Z,2.13
2023-08-12T14:18:04.960Z,1.75
2023-08-12T14:20:31.952Z,1.83
2023-08-12T14:22:58.857Z,3.10
2023-08-12T14:25:25.849Z,2.58
2023-08-12T14:27:52.902Z,2.25
2023-08-12T14:30:21.066Z,1.83
2023-08-12T14:32:49.612Z,2.22
2023-08-12T14:35:18.504Z,2.33
2023-08-12T14:37:45.535Z,2.45
2023-08-12T14:40:12.670Z,2.30
2023-08-12T14:42:39.519Z,3.63
2023-08-12T14:45:07.439Z,2.20
2023-08-12T14:47:34.599Z,2.40
2023-08-12T14:50:02.526Z,2.05
2023-08-12T14:52:29.867Z,2.10
2023-08-12T14:54:57.084Z,2.25
2023-08-12T14:57:24.441Z,2.40
2023-08-12T14:59:52.385Z,2.75
2023-08-12T15:02:22.743Z,2.47
2023-08-12T15:04:50.427Z,2.67
2023-08-12T15:07:18.023Z,2.22
2023-08-12T15:09:45.136Z,2.80
2023-08-12T15:12:12.035Z,2.83
2023-08-12T15:14:38.992Z,2.30
2023-08-12T15:17:05.959Z,2.40
2023-08-12T15:19:33.182Z,2.80
2023-08-12T15:22:00.213Z,2.30
2023-08-12T15:24:27.251Z,2.45
2023-08-12T15:26:54.362Z,3.08
2023-08-12T15:29:21.397Z,2.42
2023-08-12T15:31:48.585Z,2.72
2023-08-12T15:34:16.049Z,2.80
2023-08-12T15:36:43.423Z,3.42
2023-08-12T15:39:10.391Z,2.60
2023-08-12T15:41:42.213Z,2.55
2023-08-12T15:44:10.012Z,2.33
2023-08-12T15:46:37.479Z,2.90
2023-08-12T15:49:12.135Z,2.60
2023-08-12T15:51:42.754Z,2.63
2023-08-12T15:54:10.186Z,2.90
2023-08-12T15:56:38.335Z,2.88
2023-08-12T15:59:07.301Z,2.42
2023-08-12T16:01:34.985Z,2.70
2023-08-12T16:04:02.055Z,2.67
2023-08-12T16:06:29.710Z,2.13
2023-08-12T16:09:15.701Z,2.33
2023-08-12T16:11:44.420Z,2.70
2023-08-12T16:14:11.865Z,2.13
2023-08-12T16:16:40.714Z,3.33
2023-08-12T16:19:07.962Z,2.45
2023-08-12T16:21:35.151Z,2.17
2023-08-12T16:24:02.433Z,2.53
2023-08-12T16:26:29.466Z,2.30
2023-08-12T16:28:56.529Z,2.45
2023-08-12T16:31:24.687Z,2.13
2023-08-12T16:33:52.287Z,2.10
2023-08-12T16:36:19.174Z,2.15
2023-08-12T16:38:47.987Z,2.28
2023-08-12T16:41:17.671Z,2.97
2023-08-12T16:43:45.427Z,2.33
2023-08-12T16:46:12.842Z,3.58
2023-08-12T16:48:40.027Z,2.72
2023-08-12T16:51:07.010Z,2.60
2023-08-12T16:53:34.116Z,1.80
2023-08-12T16:56:01.391Z,1.85
2023-08-12T16:58:28.502Z,3.35
2023-08-12T17:00:55.842Z,2.55
2023-08-12T17:03:23.162Z,2.30
2023-08-12T17:05:50.684Z,2.05
2023-08-12T17:08:18.819Z,1.88
2023-08-12T17:10:45.827Z,1.90
2023-08-12T17:13:13.144Z,1.63
2023-08-12T17:15:42.084Z,1.88
2023-08-12T17:18:09.420Z,2.15
2023-08-12T17:20:39.332Z,2.28
2023-08-12T17:23:06.360Z,1.67
2023-08-12T17:25:33.315Z,1.88
2023-08-12T17:28:00.350Z,2.05
2023-08-12T17:30:27.392Z,2.13
2023-08-12T17:32:54.443Z,2.03
2023-08-12T17:35:21.504Z,2.00
2023-08-12T17:37:48.750Z,3.30
2023-08-12T17:40:17.778Z,1.98
2023-08-12T17:42:45.060Z,3.05
2023-08-12T17:45:12.382Z,2.05
2023-08-12T17:47:39.477Z,2.08
2023-08-12T17:50:10.103Z,1.95
2023-08-12T17:52:39.340Z,2.55
2023-08-12T17:55:07.237Z,1.98
2023-08-12T17:57:34.380Z,2.80
2023-08-12T18:00:01.502Z,2.15
2023-08-12T18:02:28.527Z,1.98
2023-08-12T18:04:55.580Z,2.65
2023-08-12T18:07:22.558Z,2.47
2023-08-12T18:09:50.795Z,2.30
2023-08-12T18:12:18.824Z,2.35
2023-08-12T18:14:45.934Z,2.70
2023-08-12T18:17:13.583Z,2.33
2023-08-12T18:19:40.615Z,2.20
2023-08-12T18:22:07.720Z,2.50
2023-08-12T18:24:34.754Z,3.30
2023-08-12T18:27:03.021Z,2.40
2023-08-12T18:29:31.999Z,3.17
2023-08-12T18:31:59.656Z,2.47
2023-08-12T18:34:26.661Z,2.47
2023-08-12T18:36:54.433Z,3.03
2023-08-12T18:39:21.622Z,2.45
2023-08-12T18:41:49.069Z,2.40
2023-08-12T18:44:16.562Z,2.70
2023-08-12T18:46:43.561Z,2.45
2023-08-12T18:49:10.579Z,1.75
2023-08-12T18:51:38.709Z,2.40
2023-08-12T18:54:05.984Z,2.47
2023-08-12T18:56:32.956Z,2.63
2023-08-12T18:58:59.962Z,2.65
2023-08-12T19:01:27.108Z,2.83
2023-08-12T19:03:54.436Z,2.83
2023-08-12T19:06:21.347Z,2.55
2023-08-12T19:08:48.376Z,2.20
2023-08-12T19:11:15.782Z,2.85
2023-08-12T19:13:43.025Z,2.55
2023-08-12T19:16:09.968Z,2.00
2023-08-12T19:18:37.212Z,2.78
2023-08-12T19:21:04.443Z,2.42
2023-08-12T19:23:31.419Z,2.33
2023-08-12T19:25:58.516Z,2.72
2023-08-12T19:28:25.850Z,2.45
2023-08-12T19:30:53.172Z,2.15
2023-08-12T19:33:20.589Z,2.00
2023-08-12T19:35:47.702Z,2.47
2023-08-12T19:38:16.138Z,2.42
2023-08-12T19:40:43.054Z,2.10
2023-08-12T19:43:10.397Z,2.90
2023-08-12T19:45:37.990Z,2.33
2023-08-12T19:48:05.476Z,3.25
2023-08-12T19:50:32.638Z,2.92
2023-08-12T19:52:59.715Z,2.22
2023-08-12T19:55:27.059Z,3.00
2023-08-12T19:57:54.203Z,1.95
2023-08-12T20:00:21.247Z,2.20
2023-08-12T20:02:48.349Z,3.05
2023-08-12T20:05:16.442Z,2.65
2023-08-12T20:07:48.997Z,2.05
2023-08-12T20:10:19.536Z,2.13
2023-08-12T20:12:46.955Z,2.00
2023-08-12T20:15:14.506Z,2.38
2023-08-12T20:17:41.962Z,3.42
2023-08-12T20:20:13.386Z,2.08
2023-08-12T20:22:50.941Z,1.55
2023-08-12T20:25:22.048Z,2.92
2023-08-12T20:27:49.382Z,2.50
2023-08-12T20:30:16.449Z,3.45
2023-08-12T20:32:43.779Z,2.53
2023-08-12T20:35:10.930Z,3.17
2023-08-12T20:37:38.070Z,3.42
2023-08-12T20:40:07.318Z,2.38
2023-08-12T20:42:34.182Z,2.67
2023-08-12T20:45:01.366Z,2.45
2023-08-12T20:47:28.328Z,2.75
2023-08-12T20:49:55.679Z,2.90
2023-08-12T20:52:22.717Z,2.30
2023-08-12T20:54:52.903Z,2.58
2023-08-12T20:57:20.274Z,2.83
2023-08-12T20:59:47.979Z,2.90
2023-08-12T21:02:15.148Z,2.60
2023-08-12T21:04:42.837Z,2.63
2023-08-12T21:07:09.649Z,3.10
2023-08-12T21:09:37.055Z,2.35
2023-08-12T21:12:04.935Z,2.40
2023-08-12T21:14:31.872Z,3.15
2023-08-12T21:16:58.931Z,3.00
2023-08-12T21:19:26.352Z,2.00
2023-08-12T21:21:53.753Z,1.83
2023-08-12T21:24:21.161Z,2.83
2023-08-12T21:26:52.349Z,3.05
2023-08-12T21:29:19.315Z,3.13
2023-08-12T21:31:46.241Z,3.10
2023-08-12T21:34:13.129Z,2.33
2023-08-12T21:36:40.324Z,2.65
2023-08-12T21:39:07.600Z,2.50
2023-08-12T21:41:34.752Z,2.45
2023-08-12T21:44:01.939Z,3.15
2023-08-12T21:46:29.325Z,2.80
2023-08-12T21:48:56.635Z,3.00
2023-08-12T21:51:24.407Z,2.42
2023-08-12T21:53:52.448Z,3.28
2023-08-12T21:56:19.659Z,3.13
2023-08-12T21:58:47.664Z,3.25
2023-08-12T22:01:15.108Z,2.78
2023-08-12T22:03:42.552Z,2.58
2023-08-12T22:06:09.542Z,3.25
2023-08-12T22:08:36.706Z,3.30
2023-08-12T22:11:03.841Z,2.47
2023-08-12T22:13:31.374Z,2.50
2023-08-12T22:15:58.471Z,3.90
2023-08-12T22:18:25.786Z,3.67
2023-08-12T22:20:55.588Z,2.60
2023-08-12T22:23:23.649Z,2.67
2023-08-12T22:25:51.426Z,2.83
2023-08-12T22:28:21.860Z,2.67
2023-08-12T22:30:49.171Z,3.05
2023-08-12T22:33:16.973Z,3.08
2023-08-12T22:35:44.170Z,2.42
2023-08-12T22:38:11.145Z,2.95
2023-08-12T22:40:38.591Z,2.75
2023-08-12T22:43:05.865Z,3.60
2023-08-12T22:45:42.893Z,2.28
2023-08-12T22:48:10.162Z,2.85
2023-08-12T22:50:37.380Z,3.33
2023-08-12T22:53:04.668Z,2.72
2023-08-12T22:55:31.622Z,1.92
2023-08-12T22:57:58.650Z,3.00
2023-08-12T23:00:25.779Z,2.10
2023-08-12T23:02:53.337Z,2.67
2023-08-12T23:05:20.292Z,2.50
2023-08-12T23:07:47.573Z,3.15
2023-08-12T23:10:14.549Z,2.08
2023-08-12T23:12:41.734Z,2.00
2023-08-12T23:15:09.002Z,2.15
2023-08-12T23:17:36.053Z,2.40
2023-08-12T23:20:04.967Z,2.20
2023-08-12T23:22:33.462Z,2.13
2023-08-12T23:25:00.687Z,2.55
2023-08-12T23:27:27.746Z,1.92
2023-08-12T23:29:54.998Z,2.53
2023-08-12T23:32:22.976Z,2.60
2023-08-12T23:34:50.182Z,2.53
2023-08-12T23:37:17.461Z,2.72
2023-08-12T23:39:44.579Z,2.13
2023-08-12T23:42:12.117Z,2.65
2023-08-12T23:44:39.736Z,3.53
2023-08-12T23:47:06.929Z,2.65
2023-08-12T23:49:34.134Z,2.30
2023-08-12T23:52:01.076Z,1.80
2023-08-12T23:54:28.039Z,2.33
2023-08-12T23:56:54.960Z,2.40
2023-08-12T23:59:22.240Z,2.50
